Hollister, MO

5:56 AM CDT on August 30, 2016 (GMT -0500)
Branson | | Change Station

Elev 1302 ft 36.53 °N, 93.20 °W | Updated 41 minutes ago

Mostly Cloudy
Mostly Cloudy
68 °F
Feels Like 68 °F
N
0
Wind Variable Wind from North

Today
High -- | Low -- °F
--% Chance of Precip.
Yesterday
High -- | Low -- °F
Precip. -- in
Pressure 30.15 in
Visibility 7.0 miles
Clouds Mostly Cloudy 3300 ft
Dew Point 68 °F
Humidity 100%
Rainfall 0.00 in
Snow Depth Not available.
6:42 AM 7:42 PM
Waning Crescent, 4% visible
METAR KBBG 301015Z AUTO 00000KT 7SM BKN033 20/20 A3015 RMK AO2
Pressure 30.15 in
Visibility 7.0 miles
Clouds Mostly Cloudy 3300 ft
Dew Point 68 °F
Humidity 100%
Rainfall 0.00 in
Snow Depth Not available.
6:42 AM 7:42 PM
Waning Crescent, 4% visible
METAR KBBG 301015Z AUTO 00000KT 7SM BKN033 20/20 A3015 RMK AO2

10-Day Weather Forecast

Almanac

Astronomy

Aug. 30, 2016 Rise Set
Actual Time
Civil Twilight
Nautical Twilight
Astronomical Twilight
Moon
Length of Visible Light
Length of Day
Tomorrow will be .
, % of the Moon is Illuminated

Today's Extremes

State Highs State Lows

Community

WunderPhotos

Upload Photos

1,935,809 photos uploaded!

WunderBlog® & News

Nearby

Air Quality

  Air Quality AQ Index Pollutant
Not available.

Snow Depth

Station Depth Elevation

Earthquake Activity

City Distance Mag. Time & Date
Minimum magnitude displayed is 2.5.

Coastal Water Temperatures

Place Temperature

Stations

Nearby Weather Stations

Station Location Temp. Windchill Dew Point Humidity Wind Precip. Elev Updated Type
                   

Watches & Warnings

There are currently no watches in effect.